Overview Statistics Trail Chart Weather Telemetry Raw packets
 

This is the latest recevied weather packets stored in our database for station/object IZ1RFL-3. If no packets are shown the sender has not sent any weather packets the latest 10 day(s).

<< 4 5 6 7 8 9 10 >>
Time Temp. Humidity Pressure Rain* Wind** Luminosity Snow
1788416810 26.11° C 51% 1021.2 hPa - - - -
1788415910 25.56° C 53% 1021 hPa - - - -
1788415010 24.44° C 56% 1020.7 hPa - - - -
1788414110 22.78° C 63% 1020.6 hPa - - - -
1788413210 22.78° C 65% 1020.4 hPa - - - -
1788412310 22.22° C 67% 1020.3 hPa - - - -
1788411410 21.67° C 68% 1020.1 hPa - - - -
1788410510 21.67° C 69% 1019.9 hPa - - - -
1788409610 21.67° C 69% 1019.8 hPa - - - -
1788408710 22.22° C 68% 1019.8 hPa - - - -
1788407810 22.22° C 68% 1019.8 hPa - - - -
1788406910 22.22° C 68% 1019.8 hPa - - - -
1788406010 22.22° C 68% 1019.8 hPa - - - -
1788405109 22.22° C 67% 1019.8 hPa - - - -
1788404210 22.22° C 69% 1019.7 hPa - - - -
1788403310 22.22° C 69% 1019.7 hPa - - - -
1788402411 22.78° C 67% 1019.7 hPa - - - -
1788401509 22.78° C 68% 1019.6 hPa - - - -
1788400609 22.78° C 69% 1019.8 hPa - - - -
1788399710 22.78° C 68% 1019.7 hPa - - - -
1788398809 23.33° C 68% 1019.7 hPa - - - -
1788397910 23.33° C 69% 1019.7 hPa - - - -
1788397009 23.33° C 69% 1019.7 hPa - - - -
1788396109 23.89° C 68% 1019.5 hPa - - - -
1788395209 23.89° C 67% 1019.5 hPa - - - -

* Rain since midnight (hover to see other rain measurements)
** Current wind speed in m/s (hover to see current wind gust speed)